createdAt,value
2023-03-30T00:00:51.396Z,16.23
2023-03-30T00:03:19.836Z,12.77
2023-03-30T00:05:46.973Z,17.33
2023-03-30T00:08:18.346Z,15.73
2023-03-30T00:10:45.913Z,16.27
2023-03-30T00:13:13.249Z,15.50
2023-03-30T00:15:40.444Z,15.40
2023-03-30T00:18:09.242Z,17.50
2023-03-30T00:20:37.562Z,14.57
2023-03-30T00:23:04.523Z,15.63
2023-03-30T00:25:31.191Z,16.83
2023-03-30T00:27:58.284Z,18.87
2023-03-30T00:30:25.337Z,15.20
2023-03-30T00:32:52.117Z,15.93
2023-03-30T00:35:19.580Z,14.00
2023-03-30T00:37:49.420Z,15.83
2023-03-30T00:40:20.082Z,15.47
2023-03-30T00:42:47.244Z,15.63
2023-03-30T00:45:27.769Z,16.80
2023-03-30T00:47:56.446Z,18.23
2023-03-30T00:50:27.319Z,15.37
2023-03-30T00:52:55.434Z,16.73
2023-03-30T00:55:22.956Z,19.53
2023-03-30T00:57:51.263Z,24.33
2023-03-30T01:00:18.997Z,18.80
2023-03-30T01:02:50.901Z,21.37
2023-03-30T01:05:17.608Z,18.93
2023-03-30T01:07:46.400Z,21.03
2023-03-30T01:10:13.740Z,21.20
2023-03-30T01:12:40.616Z,21.17
2023-03-30T01:15:08.705Z,22.23
2023-03-30T01:18:14.454Z,19.70
2023-03-30T01:20:53.210Z,19.83
2023-03-30T01:23:33.342Z,16.33
2023-03-30T01:26:15.137Z,16.07
2023-03-30T01:28:52.419Z,14.77
2023-03-30T01:31:37.543Z,14.60
2023-03-30T01:34:41.460Z,17.63
2023-03-30T01:37:32.627Z,17.87
2023-03-30T01:40:08.678Z,16.93
2023-03-30T01:42:58.326Z,14.73
2023-03-30T01:45:39.191Z,14.50
2023-03-30T01:48:45.672Z,15.37
2023-03-30T01:51:20.560Z,13.77
2023-03-30T01:53:59.502Z,15.60
2023-03-30T01:56:28.652Z,16.63
2023-03-30T01:58:59.749Z,19.53
2023-03-30T02:01:27.782Z,14.03
2023-03-30T02:03:57.665Z,13.07
2023-03-30T02:06:30.693Z,16.57
2023-03-30T02:08:59.312Z,14.83
2023-03-30T02:11:27.140Z,12.83
2023-03-30T02:13:55.228Z,17.00
2023-03-30T02:16:27.160Z,18.77
2023-03-30T02:18:54.671Z,16.37
2023-03-30T02:21:21.455Z,16.57
2023-03-30T02:23:48.495Z,18.20
2023-03-30T02:26:16.080Z,16.37
2023-03-30T02:28:42.627Z,17.77
2023-03-30T02:31:13.105Z,17.13
2023-03-30T02:33:54.929Z,15.47
2023-03-30T02:36:44.008Z,16.73
2023-03-30T02:39:40.852Z,16.03
2023-03-30T02:42:26.578Z,17.07
2023-03-30T02:45:30.710Z,16.63
2023-03-30T02:48:16.013Z,19.83
2023-03-30T02:50:51.708Z,18.43
2023-03-30T02:53:30.767Z,17.67
2023-03-30T02:56:24.037Z,17.47
2023-03-30T02:59:02.955Z,17.73
2023-03-30T03:01:41.138Z,20.40
2023-03-30T03:04:10.112Z,16.30
2023-03-30T03:06:38.551Z,20.57
2023-03-30T03:09:05.284Z,19.70
2023-03-30T03:11:31.676Z,21.93
2023-03-30T03:13:58.098Z,21.80
2023-03-30T03:16:24.811Z,22.77
2023-03-30T03:18:51.330Z,22.93
2023-03-30T03:21:18.067Z,21.23
2023-03-30T03:23:48.144Z,24.70
2023-03-30T03:26:14.641Z,22.77
2023-03-30T03:28:41.220Z,24.43
2023-03-30T03:31:08.144Z,25.77
2023-03-30T03:33:34.885Z,24.87
2023-03-30T03:36:01.594Z,22.50
2023-03-30T03:38:28.720Z,23.93
2023-03-30T03:40:57.085Z,24.70
2023-03-30T03:43:23.858Z,25.50
2023-03-30T03:45:50.966Z,29.00
2023-03-30T03:48:19.087Z,26.97
2023-03-30T03:50:46.446Z,27.27
2023-03-30T03:53:13.109Z,29.13
2023-03-30T03:55:40.067Z,28.10
2023-03-30T03:58:07.398Z,29.63
2023-03-30T04:00:34.750Z,30.47
2023-03-30T04:03:01.433Z,30.83
2023-03-30T04:05:28.240Z,29.50
2023-03-30T04:07:56.454Z,30.73
2023-03-30T04:10:23.835Z,28.80
2023-03-30T04:12:50.450Z,24.77
2023-03-30T04:15:16.900Z,27.50
2023-03-30T04:17:47.264Z,32.00
2023-03-30T04:20:14.393Z,25.30
2023-03-30T04:22:46.179Z,26.60
2023-03-30T04:25:15.052Z,27.30
2023-03-30T04:27:45.082Z,26.37
2023-03-30T04:30:12.758Z,25.50
2023-03-30T04:32:39.226Z,29.73
2023-03-30T04:35:06.732Z,26.10
2023-03-30T04:37:33.354Z,25.80
2023-03-30T04:40:00.607Z,29.27
2023-03-30T04:42:34.229Z,25.80
2023-03-30T04:45:01.050Z,23.97
2023-03-30T04:47:28.500Z,24.47
2023-03-30T04:49:55.114Z,23.93
2023-03-30T04:52:21.624Z,24.97
2023-03-30T04:54:48.582Z,24.47
2023-03-30T04:57:15.384Z,27.60
2023-03-30T04:59:42.916Z,28.00
2023-03-30T05:02:10.566Z,28.60
2023-03-30T05:04:37.681Z,26.90
2023-03-30T05:07:07.694Z,26.37
2023-03-30T05:09:34.519Z,24.37
2023-03-30T05:12:01.231Z,25.83
2023-03-30T05:14:27.832Z,24.73
2023-03-30T05:16:54.502Z,26.17
2023-03-30T05:19:21.772Z,24.67
2023-03-30T05:21:48.281Z,28.00
2023-03-30T05:24:15.053Z,25.50
2023-03-30T05:26:41.886Z,25.57
2023-03-30T05:29:08.809Z,27.03
2023-03-30T05:31:35.339Z,24.53
2023-03-30T05:34:02.856Z,28.40
2023-03-30T05:36:29.419Z,23.87
2023-03-30T05:38:56.226Z,25.53
2023-03-30T05:41:22.940Z,26.33
2023-03-30T05:43:49.330Z,24.70
2023-03-30T05:46:15.843Z,22.97
2023-03-30T05:48:42.305Z,24.90
2023-03-30T05:51:09.004Z,25.07
2023-03-30T05:53:36.463Z,26.97
2023-03-30T05:56:02.988Z,26.87
2023-03-30T05:58:29.527Z,27.00
2023-03-30T06:00:59.311Z,24.63
2023-03-30T06:03:26.026Z,25.13
2023-03-30T06:05:53.411Z,23.37
2023-03-30T06:08:22.675Z,26.07
2023-03-30T06:10:56.721Z,25.93
2023-03-30T06:13:23.496Z,23.80
2023-03-30T06:15:50.053Z,21.57
2023-03-30T06:18:16.794Z,22.57
2023-03-30T06:20:47.324Z,24.57
2023-03-30T06:23:13.792Z,22.60
2023-03-30T06:25:41.357Z,23.80
2023-03-30T06:28:07.878Z,22.93
2023-03-30T06:30:34.415Z,23.00
2023-03-30T06:33:01.506Z,20.60
2023-03-30T06:35:29.115Z,20.57
2023-03-30T06:37:55.718Z,22.27
2023-03-30T06:40:22.270Z,24.13
2023-03-30T06:42:48.819Z,26.17
2023-03-30T06:45:15.382Z,25.40
2023-03-30T06:47:42.157Z,22.73
2023-03-30T06:50:09.507Z,23.50
2023-03-30T06:52:37.051Z,22.03
2023-03-30T06:55:06.763Z,23.70
2023-03-30T06:57:33.482Z,20.07
2023-03-30T06:59:59.942Z,23.90
2023-03-30T07:02:26.893Z,24.00
2023-03-30T07:04:53.444Z,27.50
2023-03-30T07:07:20.884Z,26.10
2023-03-30T07:09:47.480Z,23.20
2023-03-30T07:12:14.153Z,22.33
2023-03-30T07:14:40.771Z,23.90
2023-03-30T07:17:08.549Z,19.07
2023-03-30T07:19:35.067Z,19.23
2023-03-30T07:22:02.210Z,22.93
2023-03-30T07:24:31.069Z,22.60
2023-03-30T07:26:57.479Z,22.47
2023-03-30T07:29:23.945Z,17.52
2023-03-30T07:31:50.504Z,20.23
2023-03-30T07:34:17.332Z,18.85
2023-03-30T07:36:43.935Z,18.73
2023-03-30T07:39:11.239Z,16.20
2023-03-30T07:41:37.734Z,19.63
2023-03-30T07:44:04.169Z,17.15
2023-03-30T07:46:31.230Z,16.33
2023-03-30T07:48:58.001Z,13.63
2023-03-30T07:51:27.364Z,15.85
2023-03-30T07:53:54.592Z,16.67
2023-03-30T07:56:21.122Z,14.35
2023-03-30T07:58:48.038Z,16.17
2023-03-30T08:01:14.470Z,15.70
2023-03-30T08:03:40.994Z,14.27
2023-03-30T08:06:07.597Z,14.70
2023-03-30T08:08:34.838Z,15.50
2023-03-30T08:11:01.967Z,14.05
2023-03-30T08:13:28.726Z,12.60
2023-03-30T08:15:56.355Z,15.27
2023-03-30T08:18:22.769Z,18.98
2023-03-30T08:20:53.603Z,12.95
2023-03-30T08:23:21.520Z,15.30
2023-03-30T08:25:52.442Z,13.23
2023-03-30T08:28:20.126Z,14.80
2023-03-30T08:30:47.232Z,15.00
2023-03-30T08:33:14.920Z,16.52
2023-03-30T08:35:44.629Z,16.20
2023-03-30T08:38:11.121Z,14.90
2023-03-30T08:40:41.499Z,15.75
2023-03-30T08:43:13.953Z,16.58
2023-03-30T08:45:42.802Z,20.55
2023-03-30T08:48:31.785Z,15.48
2023-03-30T08:51:01.182Z,16.50
2023-03-30T08:53:29.049Z,16.33
2023-03-30T08:56:03.498Z,15.35
2023-03-30T08:58:51.793Z,16.75
2023-03-30T09:01:40.167Z,15.88
2023-03-30T09:05:01.776Z,19.50
2023-03-30T09:07:40.271Z,14.55
2023-03-30T09:10:14.148Z,16.70
2023-03-30T09:12:48.640Z,17.20
2023-03-30T09:15:19.017Z,17.27
2023-03-30T09:17:51.517Z,15.15
2023-03-30T09:20:24.005Z,18.40
2023-03-30T09:22:52.079Z,16.60
2023-03-30T09:25:24.069Z,17.50
2023-03-30T09:27:55.873Z,19.60
2023-03-30T09:30:38.121Z,21.50
2023-03-30T09:33:29.120Z,18.05
2023-03-30T09:36:04.262Z,22.02
2023-03-30T09:38:32.332Z,22.05
2023-03-30T09:41:07.263Z,22.25
2023-03-30T09:43:46.171Z,21.43
2023-03-30T09:46:14.462Z,28.37
2023-03-30T09:48:43.303Z,25.23
2023-03-30T09:51:21.388Z,31.97
2023-03-30T09:53:51.344Z,28.07
2023-03-30T09:56:46.837Z,27.90
2023-03-30T09:59:32.755Z,32.47
2023-03-30T10:02:12.377Z,28.10
2023-03-30T10:04:54.123Z,27.30
2023-03-30T10:07:25.349Z,28.17
2023-03-30T10:09:52.401Z,26.53
2023-03-30T10:12:19.395Z,32.00
2023-03-30T10:14:46.106Z,28.83
2023-03-30T10:17:20.777Z,36.50
2023-03-30T10:19:50.400Z,28.27
2023-03-30T10:22:24.298Z,26.83
2023-03-30T10:24:55.069Z,28.90
2023-03-30T10:27:28.134Z,30.00
2023-03-30T10:29:54.576Z,30.90
2023-03-30T10:32:29.771Z,16.97
2023-03-30T10:35:01.934Z,23.13
2023-03-30T10:37:35.851Z,18.83
2023-03-30T10:40:11.216Z,22.90
2023-03-30T10:42:38.218Z,19.97
2023-03-30T10:45:06.096Z,19.23
2023-03-30T10:47:51.025Z,17.83
2023-03-30T10:50:44.020Z,16.90
2023-03-30T10:53:47.674Z,28.83
2023-03-30T10:56:35.150Z,22.63
2023-03-30T10:59:21.998Z,20.92
2023-03-30T11:02:07.255Z,19.23
2023-03-30T11:04:43.606Z,15.73
2023-03-30T11:07:31.051Z,16.80
2023-03-30T11:10:13.897Z,11.77
2023-03-30T11:12:45.274Z,12.57
2023-03-30T11:15:31.261Z,13.10
2023-03-30T11:18:39.721Z,14.98
2023-03-30T11:21:21.821Z,9.88
2023-03-30T11:24:01.983Z,5.13
2023-03-30T11:26:40.775Z,4.38
2023-03-30T11:29:27.045Z,5.75
2023-03-30T11:32:14.725Z,7.43
2023-03-30T11:35:09.367Z,5.43
2023-03-30T11:37:46.543Z,4.22
2023-03-30T11:40:27.551Z,2.80
2023-03-30T11:42:54.992Z,4.03
2023-03-30T11:45:39.152Z,5.80
2023-03-30T11:48:17.581Z,6.53
2023-03-30T11:51:04.492Z,3.63
2023-03-30T11:53:46.391Z,3.88
2023-03-30T11:56:21.996Z,4.78
2023-03-30T11:59:01.553Z,5.70
2023-03-30T12:01:33.971Z,3.35
2023-03-30T12:04:11.034Z,4.80
2023-03-30T12:06:40.303Z,4.47
2023-03-30T12:09:24.312Z,3.78
2023-03-30T12:11:54.630Z,2.83
2023-03-30T12:14:35.884Z,4.47
2023-03-30T12:17:12.697Z,4.60
2023-03-30T12:19:55.556Z,4.22
2023-03-30T12:22:40.184Z,4.50
2023-03-30T12:25:12.547Z,4.75
2023-03-30T12:28:12.610Z,5.63
2023-03-30T12:30:55.047Z,4.57
2023-03-30T12:33:35.966Z,4.93
2023-03-30T12:36:34.040Z,5.95
2023-03-30T12:39:02.485Z,9.98
2023-03-30T12:41:38.269Z,6.78
2023-03-30T12:44:25.454Z,10.10
2023-03-30T12:47:12.155Z,4.70
2023-03-30T12:49:59.692Z,6.35
2023-03-30T12:52:38.032Z,8.55
2023-03-30T12:55:15.435Z,7.28
2023-03-30T12:57:55.027Z,5.90
2023-03-30T13:00:48.895Z,5.65
2023-03-30T13:03:37.494Z,6.50
2023-03-30T13:06:07.204Z,6.28
2023-03-30T13:08:41.280Z,7.63
2023-03-30T13:11:16.484Z,7.85
2023-03-30T13:13:59.082Z,5.10
2023-03-30T13:16:48.751Z,7.05
2023-03-30T13:19:27.956Z,6.88
2023-03-30T13:22:12.656Z,7.63
2023-03-30T13:24:42.127Z,8.80
2023-03-30T13:27:35.921Z,10.65
2023-03-30T13:30:08.505Z,7.50
2023-03-30T13:32:44.604Z,9.18
2023-03-30T13:35:36.220Z,7.35
2023-03-30T13:38:26.665Z,6.70
2023-03-30T13:41:14.943Z,8.38
2023-03-30T13:43:59.733Z,7.10
2023-03-30T13:46:32.152Z,5.22
2023-03-30T13:49:17.499Z,5.60
2023-03-30T13:51:45.267Z,6.60
2023-03-30T13:54:26.678Z,9.15
2023-03-30T13:57:14.588Z,6.88
2023-03-30T13:59:50.335Z,7.80
2023-03-30T14:02:18.618Z,5.55
2023-03-30T14:04:45.102Z,7.82
2023-03-30T14:07:16.775Z,6.00
2023-03-30T14:10:09.490Z,4.90
2023-03-30T14:12:39.481Z,6.03
2023-03-30T14:15:22.206Z,6.97
2023-03-30T14:17:51.968Z,6.72
2023-03-30T14:20:37.300Z,6.30
2023-03-30T14:23:05.148Z,5.65
2023-03-30T14:25:36.365Z,4.90
2023-03-30T14:28:17.873Z,7.03
2023-03-30T14:30:53.844Z,7.70
2023-03-30T14:33:21.117Z,7.88
2023-03-30T14:36:04.454Z,7.60
2023-03-30T14:38:38.070Z,5.05
2023-03-30T14:41:30.543Z,4.93
2023-03-30T14:44:06.221Z,5.10
2023-03-30T14:46:33.116Z,6.93
2023-03-30T14:49:00.202Z,5.88
2023-03-30T14:51:27.905Z,6.18
2023-03-30T14:53:55.390Z,5.65
2023-03-30T14:56:22.844Z,2.95
2023-03-30T14:58:51.409Z,4.75
2023-03-30T15:01:23.586Z,5.43
2023-03-30T15:03:50.799Z,6.43
2023-03-30T15:06:24.504Z,7.53
2023-03-30T15:08:51.251Z,5.07
2023-03-30T15:11:24.322Z,5.20
2023-03-30T15:13:57.992Z,4.80
2023-03-30T15:16:29.590Z,5.15
2023-03-30T15:19:02.058Z,6.22
2023-03-30T15:21:30.989Z,8.68
2023-03-30T15:23:59.068Z,7.72
2023-03-30T15:26:27.006Z,16.67
2023-03-30T15:28:56.734Z,6.15
2023-03-30T15:31:23.830Z,10.50
2023-03-30T15:33:57.408Z,7.05
2023-03-30T15:36:26.424Z,4.50
2023-03-30T15:38:55.366Z,6.13
2023-03-30T15:41:24.075Z,11.15
2023-03-30T15:44:09.665Z,7.55
2023-03-30T15:46:36.864Z,3.03
2023-03-30T15:49:04.744Z,6.13
2023-03-30T15:51:37.952Z,2.08
2023-03-30T15:54:12.857Z,2.50
2023-03-30T15:56:41.923Z,1.77
2023-03-30T15:59:17.115Z,1.80
2023-03-30T16:01:48.721Z,2.58
2023-03-30T16:04:17.275Z,2.53
2023-03-30T16:06:45.927Z,3.42
2023-03-30T16:09:13.738Z,5.15
2023-03-30T16:11:40.430Z,3.73
2023-03-30T16:14:10.525Z,4.40
2023-03-30T16:16:38.089Z,3.57
2023-03-30T16:19:04.600Z,6.07
2023-03-30T16:21:31.142Z,6.77
2023-03-30T16:23:57.736Z,4.90
2023-03-30T16:26:24.244Z,4.67
2023-03-30T16:28:52.220Z,5.90
2023-03-30T16:31:22.221Z,5.80
2023-03-30T16:33:49.560Z,3.90
2023-03-30T16:36:18.972Z,9.80
2023-03-30T16:38:46.678Z,6.83
2023-03-30T16:41:17.363Z,6.67
2023-03-30T16:43:44.057Z,11.27
2023-03-30T16:46:20.362Z,6.43
2023-03-30T16:48:47.895Z,4.70
2023-03-30T16:51:15.057Z,6.72
2023-03-30T16:53:42.258Z,7.37
2023-03-30T16:56:19.138Z,8.23
2023-03-30T16:58:46.314Z,4.47
2023-03-30T17:01:15.808Z,3.83
2023-03-30T17:03:42.433Z,4.50
2023-03-30T17:06:08.976Z,2.72
2023-03-30T17:08:36.402Z,5.40
2023-03-30T17:11:04.918Z,4.33
2023-03-30T17:13:32.122Z,2.97
2023-03-30T17:16:01.067Z,3.33
2023-03-30T17:18:28.208Z,2.87
2023-03-30T17:20:56.603Z,3.80
2023-03-30T17:23:25.709Z,5.00
2023-03-30T17:25:53.933Z,3.07
2023-03-30T17:28:27.571Z,4.10
2023-03-30T17:30:56.677Z,4.37
2023-03-30T17:33:23.763Z,2.43
2023-03-30T17:35:55.148Z,1.70
2023-03-30T17:38:21.998Z,2.27
2023-03-30T17:40:48.817Z,1.77
2023-03-30T17:43:15.672Z,3.00
2023-03-30T17:45:42.944Z,3.73
2023-03-30T17:48:15.337Z,3.60
2023-03-30T17:50:44.111Z,1.97
2023-03-30T17:53:16.594Z,2.73
2023-03-30T17:55:45.797Z,2.17
2023-03-30T17:58:23.987Z,1.67
2023-03-30T18:00:52.329Z,2.27
2023-03-30T18:03:21.326Z,3.93
2023-03-30T18:05:48.860Z,2.60
2023-03-30T18:08:17.920Z,3.13
2023-03-30T18:10:49.005Z,3.73
2023-03-30T18:13:19.692Z,3.43
2023-03-30T18:15:51.815Z,9.30
2023-03-30T18:18:23.003Z,5.33
2023-03-30T18:20:51.236Z,2.97
2023-03-30T18:23:18.382Z,4.63
2023-03-30T18:25:45.528Z,2.97
2023-03-30T18:28:26.059Z,2.97
2023-03-30T18:30:55.295Z,4.33
2023-03-30T18:33:22.112Z,3.27
2023-03-30T18:35:50.633Z,1.97
2023-03-30T18:38:20.341Z,2.40
2023-03-30T18:40:49.481Z,3.93
2023-03-30T18:43:16.932Z,3.57
2023-03-30T18:45:49.178Z,3.47
2023-03-30T18:48:18.904Z,4.30
2023-03-30T18:50:47.488Z,3.13
2023-03-30T18:53:16.844Z,4.90
2023-03-30T18:55:45.475Z,3.70
2023-03-30T18:58:18.419Z,2.63
2023-03-30T19:00:45.220Z,4.40
2023-03-30T19:03:13.214Z,4.47
2023-03-30T19:05:40.801Z,4.60
2023-03-30T19:08:11.684Z,2.97
2023-03-30T19:10:39.296Z,2.87
2023-03-30T19:13:06.074Z,2.57
2023-03-30T19:15:35.096Z,3.83
2023-03-30T19:18:02.919Z,2.80
2023-03-30T19:20:31.909Z,5.03
2023-03-30T19:22:58.513Z,2.70
2023-03-30T19:25:26.631Z,3.97
2023-03-30T19:28:03.090Z,2.30
2023-03-30T19:30:33.018Z,4.43
2023-03-30T19:33:02.803Z,3.00
2023-03-30T19:35:29.966Z,5.10
2023-03-30T19:37:56.807Z,2.97
2023-03-30T19:40:23.763Z,3.13
2023-03-30T19:42:50.885Z,3.40
2023-03-30T19:45:20.297Z,2.85
2023-03-30T19:47:47.119Z,3.80
2023-03-30T19:50:17.957Z,3.40
2023-03-30T19:52:48.601Z,4.68
2023-03-30T19:55:15.716Z,2.85
2023-03-30T19:57:42.384Z,3.08
2023-03-30T20:00:15.294Z,3.70
2023-03-30T20:02:44.218Z,3.90
2023-03-30T20:05:12.828Z,4.50
2023-03-30T20:07:40.512Z,6.18
2023-03-30T20:10:09.113Z,4.78
2023-03-30T20:12:35.803Z,4.63
2023-03-30T20:15:05.407Z,4.90
2023-03-30T20:17:33.981Z,3.90
2023-03-30T20:20:07.141Z,4.78
2023-03-30T20:22:36.471Z,2.77
2023-03-30T20:25:04.808Z,3.83
2023-03-30T20:27:33.626Z,4.33
2023-03-30T20:30:00.859Z,2.80
2023-03-30T20:32:27.562Z,3.07
2023-03-30T20:34:54.175Z,3.20
2023-03-30T20:37:20.731Z,4.33
2023-03-30T20:39:49.875Z,4.63
2023-03-30T20:42:18.112Z,3.10
2023-03-30T20:44:50.160Z,5.20
2023-03-30T20:47:18.287Z,2.93
2023-03-30T20:49:46.288Z,6.20
2023-03-30T20:52:13.236Z,1.77
2023-03-30T20:54:41.154Z,4.37
2023-03-30T20:57:07.985Z,3.83
2023-03-30T20:59:34.821Z,2.93
2023-03-30T21:02:01.376Z,3.53
2023-03-30T21:04:28.714Z,2.83
2023-03-30T21:06:55.925Z,4.70
2023-03-30T21:09:22.578Z,6.53
2023-03-30T21:11:49.331Z,5.63
2023-03-30T21:14:16.580Z,3.13
2023-03-30T21:16:43.191Z,5.10
2023-03-30T21:19:09.962Z,5.00
2023-03-30T21:21:37.797Z,5.00
2023-03-30T21:24:05.793Z,3.53
2023-03-30T21:26:32.651Z,5.23
2023-03-30T21:28:59.199Z,6.03
2023-03-30T21:31:27.054Z,5.00
2023-03-30T21:33:53.841Z,4.20
2023-03-30T21:36:20.408Z,3.67
2023-03-30T21:38:47.130Z,5.10
2023-03-30T21:41:15.931Z,3.23
2023-03-30T21:43:45.190Z,5.60
2023-03-30T21:46:14.574Z,6.80
2023-03-30T21:48:42.865Z,4.23
2023-03-30T21:51:13.642Z,3.97
2023-03-30T21:53:41.684Z,5.03
2023-03-30T21:56:08.953Z,4.70
2023-03-30T21:58:35.740Z,3.80
2023-03-30T22:01:11.657Z,5.53
2023-03-30T22:03:39.618Z,3.63
2023-03-30T22:06:08.217Z,5.80
2023-03-30T22:08:35.755Z,3.90
2023-03-30T22:11:07.967Z,4.55
2023-03-30T22:13:34.571Z,3.00
2023-03-30T22:16:05.636Z,2.97
2023-03-30T22:18:33.067Z,4.87
2023-03-30T22:21:04.915Z,4.43
2023-03-30T22:23:32.586Z,3.47
2023-03-30T22:25:59.445Z,5.23
2023-03-30T22:28:26.937Z,5.43
2023-03-30T22:30:53.765Z,2.15
2023-03-30T22:33:21.328Z,3.30
2023-03-30T22:35:49.309Z,8.67
2023-03-30T22:38:16.565Z,5.47
2023-03-30T22:40:43.194Z,4.97
2023-03-30T22:43:12.217Z,5.97
2023-03-30T22:45:39.568Z,4.13
2023-03-30T22:48:06.451Z,4.13
2023-03-30T22:50:33.929Z,4.87
2023-03-30T22:53:00.876Z,6.30
2023-03-30T22:55:27.767Z,2.10
2023-03-30T22:57:55.852Z,3.13
2023-03-30T23:00:22.976Z,3.93
2023-03-30T23:02:50.313Z,5.27
2023-03-30T23:05:17.259Z,2.70
2023-03-30T23:07:44.386Z,3.43
2023-03-30T23:10:15.280Z,4.97
2023-03-30T23:12:42.984Z,4.97
2023-03-30T23:15:10.804Z,5.30
2023-03-30T23:17:38.228Z,2.93
2023-03-30T23:20:06.917Z,4.20
2023-03-30T23:22:33.691Z,3.87
2023-03-30T23:25:00.823Z,4.40
2023-03-30T23:27:28.211Z,3.10
2023-03-30T23:29:54.743Z,4.85
2023-03-30T23:32:21.246Z,5.13
2023-03-30T23:34:47.915Z,4.10
2023-03-30T23:37:14.634Z,2.83
2023-03-30T23:39:41.313Z,4.37
2023-03-30T23:42:08.187Z,5.75
2023-03-30T23:44:34.772Z,5.35
2023-03-30T23:47:02.300Z,4.27
2023-03-30T23:49:29.021Z,4.40
2023-03-30T23:51:55.991Z,5.93
2023-03-30T23:54:23.291Z,6.18
2023-03-30T23:56:57.252Z,5.22
2023-03-30T23:59:24.750Z,2.90
